createdAt,value
2022-09-03T00:01:25.424Z,17.69
2022-09-03T00:03:58.718Z,17.68
2022-09-03T00:06:33.274Z,17.68
2022-09-03T00:09:22.971Z,17.67
2022-09-03T00:11:59.840Z,17.65
2022-09-03T00:15:05.302Z,17.67
2022-09-03T00:17:51.638Z,17.67
2022-09-03T00:20:28.061Z,17.66
2022-09-03T00:22:56.664Z,17.65
2022-09-03T00:25:42.057Z,17.63
2022-09-03T00:28:16.920Z,17.63
2022-09-03T00:30:45.414Z,17.62
2022-09-03T00:33:20.295Z,17.63
2022-09-03T00:35:50.779Z,17.65
2022-09-03T00:38:18.515Z,17.67
2022-09-03T00:40:58.192Z,17.68
2022-09-03T00:43:35.509Z,17.69
2022-09-03T00:46:49.234Z,17.68
2022-09-03T00:49:37.983Z,17.74
2022-09-03T00:52:36.958Z,17.73
2022-09-03T00:55:23.273Z,17.69
2022-09-03T00:58:13.559Z,17.69
2022-09-03T01:00:43.938Z,17.71
2022-09-03T01:03:34.890Z,17.72
2022-09-03T01:06:08.949Z,17.73
2022-09-03T01:08:52.368Z,17.73
2022-09-03T01:11:48.427Z,17.72
2022-09-03T01:14:37.905Z,17.71
2022-09-03T01:17:38.195Z,17.74
2022-09-03T01:20:22.008Z,17.79
2022-09-03T01:23:08.356Z,17.82
2022-09-03T01:25:54.534Z,17.80
2022-09-03T01:28:34.009Z,17.82
2022-09-03T01:31:28.053Z,17.79
2022-09-03T01:34:08.913Z,17.76
2022-09-03T01:36:40.439Z,17.80
2022-09-03T01:39:09.169Z,17.81
2022-09-03T01:42:04.005Z,17.79
2022-09-03T01:44:58.733Z,17.77
2022-09-03T01:47:53.554Z,17.79
2022-09-03T01:50:44.362Z,17.80
2022-09-03T01:53:36.258Z,17.79
2022-09-03T01:57:00.434Z,17.80
2022-09-03T01:59:32.240Z,17.80
2022-09-03T02:02:19.622Z,17.83
2022-09-03T02:05:10.851Z,17.82
2022-09-03T02:07:46.510Z,17.87
2022-09-03T02:10:22.756Z,17.93
2022-09-03T02:12:53.175Z,17.97
2022-09-03T02:15:23.378Z,17.99
2022-09-03T02:17:51.343Z,18.02
2022-09-03T02:20:21.643Z,18.03
2022-09-03T02:22:49.897Z,18.01
2022-09-03T02:25:18.281Z,18.01
2022-09-03T02:27:46.264Z,18.01
2022-09-03T02:30:14.104Z,17.98
2022-09-03T02:32:42.023Z,18.00
2022-09-03T02:35:10.464Z,18.02
2022-09-03T02:37:38.222Z,18.04
2022-09-03T02:40:11.341Z,18.05
2022-09-03T02:42:39.411Z,18.05
2022-09-03T02:45:22.421Z,18.04
2022-09-03T02:47:51.934Z,18.05
2022-09-03T02:50:19.774Z,18.02
2022-09-03T02:52:47.943Z,17.96
2022-09-03T02:55:16.775Z,17.98
2022-09-03T02:57:44.711Z,17.97
2022-09-03T03:00:12.873Z,17.98
2022-09-03T03:02:40.892Z,17.96
2022-09-03T03:05:11.307Z,17.92
2022-09-03T03:07:39.728Z,17.89
2022-09-03T03:10:08.005Z,17.92
2022-09-03T03:12:36.207Z,17.88
2022-09-03T03:15:04.079Z,17.88
2022-09-03T03:17:32.907Z,17.90
2022-09-03T03:20:00.672Z,17.89
2022-09-03T03:22:28.472Z,17.87
2022-09-03T03:24:58.120Z,17.82
2022-09-03T03:27:25.993Z,17.79
2022-09-03T03:29:53.769Z,17.82
2022-09-03T03:32:21.762Z,17.76
2022-09-03T03:34:49.587Z,17.76
2022-09-03T03:37:17.414Z,17.79
2022-09-03T03:39:45.572Z,17.77
2022-09-03T03:42:13.387Z,17.74
2022-09-03T03:44:41.169Z,17.71
2022-09-03T03:47:09.007Z,17.71
2022-09-03T03:49:36.830Z,17.70
2022-09-03T03:52:05.580Z,17.68
2022-09-03T03:54:33.381Z,17.72
2022-09-03T03:57:01.244Z,17.72
2022-09-03T03:59:29.020Z,17.75
2022-09-03T04:01:56.840Z,17.77
2022-09-03T04:04:24.717Z,17.75
2022-09-03T04:06:52.465Z,17.73
2022-09-03T04:09:20.360Z,17.71
2022-09-03T04:11:48.175Z,17.71
2022-09-03T04:14:15.982Z,17.70
2022-09-03T04:16:44.421Z,17.69
2022-09-03T04:19:12.342Z,17.69
2022-09-03T04:21:40.383Z,17.67
2022-09-03T04:24:08.568Z,17.64
2022-09-03T04:26:36.417Z,17.65
2022-09-03T04:29:06.038Z,17.63
2022-09-03T04:31:34.025Z,17.63
2022-09-03T04:34:01.999Z,17.63
2022-09-03T04:36:31.201Z,17.58
2022-09-03T04:39:00.388Z,17.58
2022-09-03T04:41:29.286Z,17.57
2022-09-03T04:43:58.026Z,17.53
2022-09-03T04:46:28.016Z,17.51
2022-09-03T04:48:56.143Z,17.51
2022-09-03T04:51:25.624Z,17.48
2022-09-03T04:53:59.375Z,17.41
2022-09-03T04:56:29.070Z,17.41
2022-09-03T04:58:58.470Z,17.40
2022-09-03T05:01:28.053Z,17.37
2022-09-03T05:03:57.346Z,17.39
2022-09-03T05:06:26.758Z,17.36
2022-09-03T05:08:55.489Z,17.38
2022-09-03T05:11:23.830Z,17.35
2022-09-03T05:13:52.364Z,17.38
2022-09-03T05:16:20.356Z,17.35
2022-09-03T05:18:48.498Z,17.37
2022-09-03T05:21:17.675Z,17.36
2022-09-03T05:23:49.267Z,17.39
2022-09-03T05:26:18.805Z,17.43
2022-09-03T05:28:47.069Z,17.39
2022-09-03T05:31:19.629Z,17.39
2022-09-03T05:33:59.602Z,17.38
2022-09-03T05:36:29.516Z,17.40
2022-09-03T05:38:58.627Z,17.40
2022-09-03T05:41:27.316Z,17.38
2022-09-03T05:44:00.190Z,17.39
2022-09-03T05:46:32.785Z,17.39
2022-09-03T05:49:07.442Z,17.39
2022-09-03T05:51:36.229Z,17.38
2022-09-03T05:54:04.773Z,17.38
2022-09-03T05:56:33.594Z,17.38
2022-09-03T05:59:02.743Z,17.41
2022-09-03T06:01:32.364Z,17.44
2022-09-03T06:04:01.719Z,17.46
2022-09-03T06:06:30.307Z,17.50
2022-09-03T06:08:59.913Z,17.52
2022-09-03T06:11:29.316Z,17.53
2022-09-03T06:13:57.969Z,17.56
2022-09-03T06:16:31.650Z,17.59
2022-09-03T06:19:00.844Z,17.61
2022-09-03T06:21:29.060Z,17.63
2022-09-03T06:23:58.533Z,17.65
2022-09-03T06:26:29.799Z,17.67
2022-09-03T06:28:57.924Z,17.67
2022-09-03T06:31:25.995Z,17.68
2022-09-03T06:33:58.600Z,17.68
2022-09-03T06:36:28.817Z,17.73
2022-09-03T06:38:57.450Z,17.75
2022-09-03T06:41:30.213Z,17.76
2022-09-03T06:44:05.470Z,17.76
2022-09-03T06:46:36.877Z,17.79
2022-09-03T06:49:04.711Z,17.79
2022-09-03T06:51:34.118Z,17.78
2022-09-03T06:54:02.717Z,17.81
2022-09-03T06:56:30.527Z,17.84
2022-09-03T06:58:59.359Z,17.85
2022-09-03T07:01:29.400Z,17.86
2022-09-03T07:03:58.289Z,17.87
2022-09-03T07:06:28.456Z,17.89
2022-09-03T07:08:56.719Z,17.91
2022-09-03T07:11:28.108Z,17.95
2022-09-03T07:13:57.213Z,17.99
2022-09-03T07:16:26.680Z,18.01
2022-09-03T07:18:55.482Z,18.06
2022-09-03T07:21:25.041Z,18.15
2022-09-03T07:23:53.673Z,18.19
2022-09-03T07:26:31.652Z,18.24
2022-09-03T07:29:00.999Z,18.24
2022-09-03T07:31:33.489Z,18.25
2022-09-03T07:34:02.574Z,18.29
2022-09-03T07:36:35.495Z,18.32
2022-09-03T07:39:05.339Z,18.41
2022-09-03T07:41:36.050Z,18.53
2022-09-03T07:44:06.825Z,18.63
2022-09-03T07:46:35.705Z,18.70
2022-09-03T07:49:03.885Z,18.83
2022-09-03T07:51:33.101Z,18.89
2022-09-03T07:54:06.809Z,19.06
2022-09-03T07:56:36.152Z,19.24
2022-09-03T07:59:04.511Z,19.43
2022-09-03T08:01:39.226Z,19.54
2022-09-03T08:04:10.219Z,19.61
2022-09-03T08:06:38.888Z,19.83
2022-09-03T08:09:08.413Z,20.08
2022-09-03T08:11:38.804Z,20.30
2022-09-03T08:14:10.532Z,20.43
2022-09-03T08:16:43.784Z,20.53
2022-09-03T08:19:13.397Z,20.53
2022-09-03T08:21:44.572Z,20.75
2022-09-03T08:24:13.245Z,20.80
2022-09-03T08:26:49.086Z,21.02
2022-09-03T08:29:19.615Z,21.19
2022-09-03T08:31:47.461Z,21.34
2022-09-03T08:34:15.882Z,21.55
2022-09-03T08:36:43.831Z,21.68
2022-09-03T08:39:12.129Z,21.82
2022-09-03T08:41:51.946Z,21.85
2022-09-03T08:44:37.911Z,21.88
2022-09-03T08:47:30.523Z,21.94
2022-09-03T08:50:25.931Z,22.04
2022-09-03T08:53:08.907Z,22.19
2022-09-03T08:55:52.157Z,22.30
2022-09-03T08:58:21.549Z,22.19
2022-09-03T09:01:05.302Z,22.18
2022-09-03T09:04:08.362Z,22.42
2022-09-03T09:06:51.249Z,22.60
2022-09-03T09:09:27.802Z,22.53
2022-09-03T09:12:03.017Z,22.68
2022-09-03T09:14:41.219Z,22.90
2022-09-03T09:17:33.981Z,23.07
2022-09-03T09:20:37.984Z,23.25
2022-09-03T09:23:09.998Z,23.38
2022-09-03T09:25:49.878Z,23.45
2022-09-03T09:28:22.777Z,23.61
2022-09-03T09:30:52.635Z,23.80
2022-09-03T09:33:21.941Z,23.83
2022-09-03T09:35:50.029Z,23.87
2022-09-03T09:38:31.604Z,23.88
2022-09-03T09:41:09.894Z,23.94
2022-09-03T09:43:37.694Z,24.07
2022-09-03T09:46:16.371Z,24.18
2022-09-03T09:48:52.968Z,24.25
2022-09-03T09:51:23.612Z,24.08
2022-09-03T09:54:05.659Z,24.24
2022-09-03T09:56:33.542Z,24.57
2022-09-03T09:59:08.874Z,24.83
2022-09-03T10:01:46.273Z,24.83
2022-09-03T10:04:27.811Z,24.91
2022-09-03T10:07:07.127Z,24.89
2022-09-03T10:09:35.043Z,24.62
2022-09-03T10:12:15.488Z,24.29
2022-09-03T10:14:52.776Z,23.98
2022-09-03T10:17:26.590Z,23.60
2022-09-03T10:20:31.348Z,23.38
2022-09-03T10:23:16.466Z,23.14
2022-09-03T10:26:10.274Z,22.95
2022-09-03T10:28:44.350Z,22.79
2022-09-03T10:31:24.831Z,22.54
2022-09-03T10:34:15.901Z,22.21
2022-09-03T10:37:05.146Z,22.00
2022-09-03T10:39:53.719Z,21.85
2022-09-03T10:42:52.846Z,21.73
2022-09-03T10:45:41.092Z,21.62
2022-09-03T10:48:23.484Z,21.56
2022-09-03T10:51:17.475Z,21.63
2022-09-03T10:54:06.404Z,21.62
2022-09-03T10:57:01.573Z,21.65
2022-09-03T10:59:36.654Z,21.64
2022-09-03T11:02:30.790Z,21.62
2022-09-03T11:05:22.780Z,21.71
2022-09-03T11:07:56.613Z,21.76
2022-09-03T11:10:30.630Z,21.74
2022-09-03T11:13:15.389Z,21.77
2022-09-03T11:16:06.197Z,21.74
2022-09-03T11:18:53.102Z,21.78
2022-09-03T11:21:25.888Z,21.82
2022-09-03T11:24:01.767Z,21.96
2022-09-03T11:26:29.587Z,22.04
2022-09-03T11:29:10.975Z,22.15
2022-09-03T11:32:00.146Z,22.24
2022-09-03T11:34:33.325Z,22.21
2022-09-03T11:37:09.428Z,22.17
2022-09-03T11:39:40.162Z,22.19
2022-09-03T11:42:13.662Z,22.20
2022-09-03T11:44:51.295Z,22.17
2022-09-03T11:47:41.867Z,22.09
2022-09-03T11:50:22.987Z,22.31
2022-09-03T11:52:55.860Z,22.45
2022-09-03T11:55:43.672Z,22.69
2022-09-03T11:58:21.971Z,22.63
2022-09-03T12:00:51.980Z,22.49
2022-09-03T12:03:25.291Z,22.64
2022-09-03T12:06:11.529Z,23.15
2022-09-03T12:08:45.309Z,23.37
2022-09-03T12:11:26.200Z,23.35
2022-09-03T12:14:21.832Z,23.09
2022-09-03T12:16:58.857Z,23.09
2022-09-03T12:19:51.746Z,22.86
2022-09-03T12:22:20.736Z,22.63
2022-09-03T12:24:49.357Z,22.97
2022-09-03T12:27:18.442Z,23.49
2022-09-03T12:29:59.123Z,23.71
2022-09-03T12:32:33.422Z,23.68
2022-09-03T12:35:14.280Z,23.52
2022-09-03T12:40:32.738Z,23.47
2022-09-03T12:46:10.156Z,24.48
2022-09-03T12:48:39.724Z,24.52
2022-09-03T12:53:59.537Z,24.92
2022-09-03T12:56:28.819Z,25.15
2022-09-03T12:58:59.830Z,25.49
2022-09-03T13:01:33.937Z,25.68
2022-09-03T13:04:10.269Z,26.09
2022-09-03T13:07:09.211Z,26.08
2022-09-03T13:09:38.993Z,25.85
2022-09-03T13:12:07.179Z,25.94
2022-09-03T13:14:45.948Z,26.18
2022-09-03T13:17:19.743Z,26.60
2022-09-03T13:19:57.598Z,26.72
2022-09-03T13:22:40.528Z,27.04
2022-09-03T13:25:21.583Z,27.34
2022-09-03T13:28:17.436Z,27.43
2022-09-03T13:31:06.440Z,27.42
2022-09-03T13:33:45.020Z,27.69
2022-09-03T13:36:18.272Z,27.80
2022-09-03T13:38:56.299Z,28.01
2022-09-03T13:41:45.777Z,27.85
2022-09-03T13:44:19.751Z,27.84
2022-09-03T13:46:57.547Z,27.71
2022-09-03T13:50:07.389Z,27.67
2022-09-03T13:52:53.526Z,27.75
2022-09-03T13:55:35.870Z,27.77
2022-09-03T13:58:09.641Z,27.76
2022-09-03T14:00:59.333Z,27.60
2022-09-03T14:03:38.367Z,27.61
2022-09-03T14:06:27.905Z,27.55
2022-09-03T14:09:23.567Z,27.60
2022-09-03T14:11:57.300Z,27.54
2022-09-03T14:14:52.718Z,27.41
2022-09-03T14:17:39.006Z,27.34
2022-09-03T14:20:20.793Z,27.33
2022-09-03T14:23:00.974Z,27.33
2022-09-03T14:25:28.964Z,27.35
2022-09-03T14:27:57.064Z,27.27
2022-09-03T14:30:49.623Z,27.01
2022-09-03T14:33:45.897Z,26.67
2022-09-03T14:36:35.699Z,26.62
2022-09-03T14:39:25.203Z,26.56
2022-09-03T14:42:04.541Z,26.52
2022-09-03T14:45:26.852Z,26.50
2022-09-03T14:48:20.327Z,26.24
2022-09-03T14:51:03.145Z,26.12
2022-09-03T14:53:59.601Z,26.02
2022-09-03T14:56:56.711Z,25.95
2022-09-03T14:59:49.889Z,25.86
2022-09-03T15:02:35.825Z,25.67
2022-09-03T15:05:31.941Z,25.47
2022-09-03T15:08:09.415Z,25.33
2022-09-03T15:10:51.178Z,25.27
2022-09-03T15:13:32.506Z,25.20
2022-09-03T15:16:36.098Z,25.15
2022-09-03T15:19:28.504Z,25.02
2022-09-03T15:22:04.927Z,24.91
2022-09-03T15:24:45.059Z,24.87
2022-09-03T15:27:18.807Z,24.75
2022-09-03T15:29:46.508Z,24.60
2022-09-03T15:32:38.427Z,24.52
2022-09-03T15:35:28.154Z,24.49
2022-09-03T15:38:12.073Z,24.42
2022-09-03T15:40:47.202Z,24.35
2022-09-03T15:43:29.116Z,24.25
2022-09-03T15:46:01.259Z,24.16
2022-09-03T15:48:52.136Z,24.08
2022-09-03T15:51:30.053Z,24.03
2022-09-03T15:53:58.195Z,23.95
2022-09-03T15:56:53.838Z,23.94
2022-09-03T15:59:44.031Z,23.92
2022-09-03T16:02:35.638Z,23.88
2022-09-03T16:05:30.799Z,23.79
2022-09-03T16:08:17.749Z,23.77
2022-09-03T16:11:04.167Z,23.73
2022-09-03T16:13:55.604Z,23.73
2022-09-03T16:17:00.950Z,23.61
2022-09-03T16:19:58.690Z,23.54
2022-09-03T16:22:34.544Z,23.46
2022-09-03T16:25:30.950Z,23.38
2022-09-03T16:28:15.170Z,23.24
2022-09-03T16:31:12.260Z,23.09
2022-09-03T16:33:52.882Z,23.01
2022-09-03T16:36:30.133Z,22.94
2022-09-03T16:39:21.472Z,22.86
2022-09-03T16:42:22.095Z,22.80
2022-09-03T16:45:13.155Z,22.70
2022-09-03T16:48:08.644Z,22.70
2022-09-03T16:50:41.815Z,22.65
2022-09-03T16:53:16.851Z,22.53
2022-09-03T16:55:58.384Z,22.46
2022-09-03T16:58:46.412Z,22.40
2022-09-03T17:01:32.920Z,22.34
2022-09-03T17:04:09.667Z,22.35
2022-09-03T17:06:57.999Z,22.29
2022-09-03T17:09:35.813Z,22.23
2022-09-03T17:12:20.767Z,22.15
2022-09-03T17:14:55.222Z,22.13
2022-09-03T17:17:38.519Z,22.12
2022-09-03T17:20:50.490Z,22.06
2022-09-03T17:23:30.578Z,21.97
2022-09-03T17:26:13.615Z,21.94
2022-09-03T17:28:41.307Z,21.92
2022-09-03T17:31:25.523Z,21.90
2022-09-03T17:34:08.773Z,21.87
2022-09-03T17:36:38.884Z,21.84
2022-09-03T17:39:09.728Z,21.79
2022-09-03T17:42:08.084Z,21.76
2022-09-03T17:44:44.934Z,21.75
2022-09-03T17:47:27.209Z,21.73
2022-09-03T17:49:57.498Z,21.72
2022-09-03T17:52:31.551Z,21.70
2022-09-03T17:55:01.468Z,21.69
2022-09-03T17:57:32.800Z,21.67
2022-09-03T18:00:09.472Z,21.68
2022-09-03T18:03:10.636Z,21.66
2022-09-03T18:05:55.939Z,21.64
2022-09-03T18:08:27.949Z,21.58
2022-09-03T18:11:15.568Z,21.54
2022-09-03T18:13:56.602Z,21.49
2022-09-03T18:16:27.285Z,21.44
2022-09-03T18:19:20.337Z,21.37
2022-09-03T18:22:07.278Z,21.33
2022-09-03T18:24:58.914Z,21.31
2022-09-03T18:28:07.869Z,21.28
2022-09-03T18:30:54.117Z,21.25
2022-09-03T18:33:43.562Z,21.17
2022-09-03T18:36:30.512Z,21.08
2022-09-03T18:39:27.582Z,21.00
2022-09-03T18:42:35.822Z,20.98
2022-09-03T18:45:47.833Z,20.93
2022-09-03T18:48:56.335Z,20.89
2022-09-03T18:51:47.593Z,20.80
2022-09-03T18:55:08.267Z,20.82
2022-09-03T18:58:20.705Z,20.82
2022-09-03T19:01:27.236Z,20.69
2022-09-03T19:04:17.944Z,20.61
2022-09-03T19:07:16.602Z,20.56
2022-09-03T19:10:13.899Z,20.47
2022-09-03T19:13:09.530Z,20.49
2022-09-03T19:16:07.692Z,20.48
2022-09-03T19:19:15.976Z,20.41
2022-09-03T19:22:14.091Z,20.37
2022-09-03T19:25:00.213Z,20.33
2022-09-03T19:28:11.575Z,20.27
2022-09-03T19:31:36.708Z,20.17
2022-09-03T19:34:47.933Z,20.15
2022-09-03T19:37:50.316Z,20.11
2022-09-03T19:40:47.678Z,20.08
2022-09-03T19:44:02.127Z,20.10
2022-09-03T19:46:51.122Z,20.06
2022-09-03T19:49:49.215Z,20.01
2022-09-03T19:52:49.259Z,19.93
2022-09-03T19:55:42.297Z,19.85
2022-09-03T19:58:42.502Z,19.84
2022-09-03T20:01:30.333Z,19.73
2022-09-03T20:04:18.283Z,19.72
2022-09-03T20:07:05.196Z,19.73
2022-09-03T20:09:54.532Z,19.77
2022-09-03T20:12:22.455Z,19.78
2022-09-03T20:14:50.235Z,19.74
2022-09-03T20:17:45.069Z,19.69
2022-09-03T20:20:25.382Z,19.64
2022-09-03T20:23:02.624Z,19.60
2022-09-03T20:25:54.832Z,19.58
2022-09-03T20:28:38.981Z,19.58
2022-09-03T20:31:40.356Z,19.61
2022-09-03T20:34:13.829Z,19.60
2022-09-03T20:37:30.674Z,19.59
2022-09-03T20:40:18.226Z,19.51
2022-09-03T20:43:11.231Z,19.49
2022-09-03T20:46:02.742Z,19.46
2022-09-03T20:48:45.798Z,19.39
2022-09-03T20:51:24.005Z,19.33
2022-09-03T20:53:51.848Z,19.27
2022-09-03T20:56:37.888Z,19.25
2022-09-03T20:59:53.764Z,19.20
2022-09-03T21:02:59.492Z,19.18
2022-09-03T21:05:52.273Z,19.15
2022-09-03T21:08:30.995Z,19.09
2022-09-03T21:11:29.943Z,19.11
2022-09-03T21:14:18.627Z,19.07
2022-09-03T21:17:08.263Z,19.02
2022-09-03T21:20:02.869Z,18.92
2022-09-03T21:23:00.504Z,18.90
2022-09-03T21:25:33.090Z,18.89
2022-09-03T21:28:23.527Z,18.87
2022-09-03T21:31:00.915Z,18.75
2022-09-03T21:33:30.851Z,18.65
2022-09-03T21:36:08.256Z,18.58
2022-09-03T21:38:38.479Z,18.46
2022-09-03T21:41:27.541Z,18.44
2022-09-03T21:43:59.611Z,18.49
2022-09-03T21:46:30.576Z,18.53
2022-09-03T21:49:02.223Z,18.55
2022-09-03T21:51:50.848Z,18.52
2022-09-03T21:54:38.300Z,18.47
2022-09-03T21:57:22.267Z,18.40
2022-09-03T22:00:19.358Z,18.37
2022-09-03T22:02:47.969Z,18.45
2022-09-03T22:05:17.060Z,18.47
2022-09-03T22:08:08.926Z,18.44
2022-09-03T22:10:55.070Z,18.41
2022-09-03T22:13:36.136Z,18.39
2022-09-03T22:16:48.454Z,18.33
2022-09-03T22:19:16.646Z,18.28
2022-09-03T22:21:59.416Z,18.22
2022-09-03T22:24:46.248Z,18.24
2022-09-03T22:27:48.061Z,18.20
2022-09-03T22:30:22.296Z,18.18
2022-09-03T22:32:55.970Z,18.14
2022-09-03T22:35:27.007Z,18.08
2022-09-03T22:38:28.484Z,18.03
2022-09-03T22:41:01.855Z,18.04
2022-09-03T22:43:32.658Z,17.98
2022-09-03T22:46:12.392Z,17.98
2022-09-03T22:48:58.865Z,17.93
2022-09-03T22:51:29.037Z,17.86
2022-09-03T22:54:21.623Z,17.87
2022-09-03T22:56:49.483Z,17.88
2022-09-03T22:59:25.236Z,17.87
2022-09-03T23:02:15.130Z,17.82
2022-09-03T23:04:45.971Z,17.80
2022-09-03T23:07:25.789Z,17.79
2022-09-03T23:09:58.803Z,17.74
2022-09-03T23:12:35.484Z,17.76
2022-09-03T23:15:10.325Z,17.77
2022-09-03T23:17:44.263Z,17.75
2022-09-03T23:20:24.022Z,17.73
2022-09-03T23:23:00.987Z,17.73
2022-09-03T23:25:38.059Z,17.73
2022-09-03T23:28:29.602Z,17.73
2022-09-03T23:31:08.704Z,17.71
2022-09-03T23:33:36.513Z,17.70
2022-09-03T23:36:09.974Z,17.66
2022-09-03T23:39:03.931Z,17.60
2022-09-03T23:41:46.914Z,17.56
2022-09-03T23:44:35.791Z,17.54
2022-09-03T23:47:35.025Z,17.52
2022-09-03T23:50:22.622Z,17.48
2022-09-03T23:52:56.916Z,17.45
2022-09-03T23:55:30.367Z,17.45
2022-09-03T23:58:08.122Z,17.42
